LPFL/FLW METAR and TAF weather

Enter ICAO airport designator
Station Type Date Time Source
LPFL METAR 2022/06/29 21:00 UTC NOAA

LPFL 292100Z 36008KT 9999 -SHRA SCT006 BKN010 20/18 Q1031


Station Type Date Time Source
LPFL Decoded METAR 2022/06/29 21:00 UTC NOAA

Flores Acores , Portugal (LPFL) 39-27N 031-08W 29M
Jun 29, 2022 - 05:00 PM EDT / 2022.06.29 2100 UTC
Wind: from the N (360 degrees) at 9 MPH (8 KT):0
Visibility: greater than 7 mile(s):0
Sky conditions: mostly cloudy
Weather: light rain showers
Temperature: 68 F (20 C)
Dew Point: 64 F (18 C)
Relative Humidity: 88%
Pressure (altimeter): 30.45 in. Hg (1031 hPa)
ob: LPFL 292100Z 36008KT 9999 -SHRA SCT006 BKN010 20/18 Q1031
cycle: 21

Station Type Date Time Source
LPFL TAF UTC NOAA

Error!

Example: see airport list